createdAt,value
2018-06-12T00:00:58.002Z,22.59
2018-06-12T00:01:58.284Z,22.51
2018-06-12T00:02:58.304Z,22.35
2018-06-12T00:03:58.334Z,22.48
2018-06-12T00:04:58.104Z,22.38
2018-06-12T00:05:58.136Z,22.39
2018-06-12T00:06:58.159Z,22.47
2018-06-12T00:07:58.442Z,22.45
2018-06-12T00:08:58.209Z,22.44
2018-06-12T00:09:58.488Z,22.44
2018-06-12T00:10:58.509Z,22.41
2018-06-12T00:11:58.539Z,22.25
2018-06-12T00:12:58.563Z,22.25
2018-06-12T00:13:58.335Z,22.28
2018-06-12T00:14:58.645Z,22.35
2018-06-12T00:15:58.639Z,22.33
2018-06-12T00:16:58.666Z,22.26
2018-06-12T00:17:58.436Z,22.35
2018-06-12T00:18:58.712Z,22.28
2018-06-12T00:19:58.249Z,22.28
2018-06-12T00:20:58.819Z,22.3
2018-06-12T00:21:58.794Z,22.28
2018-06-12T00:22:58.570Z,22.3
2018-06-12T00:23:58.593Z,22.3
2018-06-12T00:24:58.876Z,22.3
2018-06-12T00:25:58.641Z,22.38
2018-06-12T00:26:58.930Z,22.43
2018-06-12T00:27:58.944Z,22.38
2018-06-12T00:28:58.979Z,22.44
2018-06-12T00:29:58.987Z,22.45
2018-06-12T00:30:59.013Z,22.45
2018-06-12T00:31:58.794Z,22.41
2018-06-12T00:32:59.064Z,22.47
2018-06-12T00:33:59.098Z,22.47
2018-06-12T00:34:59.122Z,22.53
2018-06-12T00:35:59.139Z,22.44
2018-06-12T00:36:59.207Z,22.3
2018-06-12T00:37:58.941Z,22.22
2018-06-12T00:38:58.719Z,22.1
2018-06-12T00:39:59.254Z,22.02
2018-06-12T00:40:59.281Z,22.04
2018-06-12T00:41:59.306Z,21.82
2018-06-12T00:42:59.076Z,21.83
2018-06-12T00:43:59.364Z,21.93
2018-06-12T00:44:59.383Z,21.93
2018-06-12T00:45:59.407Z,21.96
2018-06-12T00:46:59.178Z,21.92
2018-06-12T00:47:59.457Z,21.98
2018-06-12T00:48:59.476Z,21.82
2018-06-12T00:49:59.526Z,21.88
2018-06-12T00:50:59.535Z,21.88
2018-06-12T00:51:59.580Z,21.82
2018-06-12T00:52:59.582Z,21.85
2018-06-12T00:53:59.603Z,21.8
2018-06-12T00:54:59.633Z,21.79
2018-06-12T00:55:59.401Z,21.79
2018-06-12T00:56:59.434Z,21.79
2018-06-12T00:57:59.696Z,21.6
2018-06-12T00:58:59.722Z,21.5
2018-06-12T00:59:59.744Z,21.48
2018-06-12T01:00:59.770Z,21.5
2018-06-12T01:01:59.799Z,21.55
2018-06-12T01:02:59.817Z,21.55
2018-06-12T01:03:59.847Z,21.5
2018-06-12T01:04:59.868Z,21.46
2018-06-12T01:05:59.898Z,21.6
2018-06-12T01:06:59.932Z,21.58
2018-06-12T01:07:59.958Z,21.54
2018-06-12T01:08:59.730Z,21.54
2018-06-12T01:09:59.755Z,21.5
2018-06-12T01:11:00.040Z,21.64
2018-06-12T01:12:00.065Z,21.52
2018-06-12T01:12:59.839Z,21.57
2018-06-12T01:13:59.857Z,21.48
2018-06-12T01:14:59.884Z,21.64
2018-06-12T01:15:59.910Z,21.64
2018-06-12T01:16:59.687Z,21.64
2018-06-12T01:17:59.956Z,21.76
2018-06-12T01:19:00.237Z,21.69
2018-06-12T01:20:00.260Z,21.72
2018-06-12T01:21:00.283Z,21.66
2018-06-12T01:22:00.309Z,21.66
2018-06-12T01:23:00.329Z,21.61
2018-06-12T01:23:59.853Z,21.75
2018-06-12T01:24:59.871Z,21.72
2018-06-12T01:26:00.397Z,21.73
2018-06-12T01:27:00.176Z,21.58
2018-06-12T01:28:00.449Z,21.61
2018-06-12T01:29:00.483Z,21.66
2018-06-12T01:30:00.509Z,21.67
2018-06-12T01:31:00.285Z,21.61
2018-06-12T01:32:00.308Z,21.66
2018-06-12T01:33:00.331Z,21.76
2018-06-12T01:34:00.615Z,21.8
2018-06-12T01:35:00.383Z,21.72
2018-06-12T01:36:00.666Z,21.76
2018-06-12T01:37:00.701Z,21.73
2018-06-12T01:38:00.715Z,21.72
2018-06-12T01:39:00.742Z,21.77
2018-06-12T01:40:00.779Z,21.85
2018-06-12T01:41:00.280Z,21.88
2018-06-12T01:42:00.589Z,21.77
2018-06-12T01:43:00.584Z,21.76
2018-06-12T01:44:00.863Z,21.83
2018-06-12T01:45:00.900Z,21.8
2018-06-12T01:46:00.910Z,21.79
2018-06-12T01:47:00.687Z,21.75
2018-06-12T01:48:00.455Z,21.8
2018-06-12T01:49:00.990Z,21.82
2018-06-12T01:50:00.758Z,21.8
2018-06-12T01:51:01.038Z,21.93
2018-06-12T01:52:00.812Z,21.82
2018-06-12T01:53:00.832Z,21.88
2018-06-12T01:54:00.852Z,21.91
2018-06-12T01:55:01.131Z,21.91
2018-06-12T01:56:01.158Z,21.98
2018-06-12T01:57:01.178Z,21.99
2018-06-12T01:58:01.263Z,21.88
2018-06-12T01:59:01.232Z,21.79
2018-06-12T02:00:01.256Z,21.83
2018-06-12T02:01:01.028Z,21.83
2018-06-12T02:02:01.309Z,21.8
2018-06-12T02:03:01.387Z,21.93
2018-06-12T02:04:01.103Z,21.91
2018-06-12T02:05:01.128Z,21.88
2018-06-12T02:06:00.903Z,21.83
2018-06-12T02:07:01.441Z,21.83
2018-06-12T02:08:00.954Z,21.76
2018-06-12T02:09:01.480Z,21.72
2018-06-12T02:10:01.506Z,21.75
2018-06-12T02:11:01.035Z,21.83
2018-06-12T02:12:01.058Z,21.85
2018-06-12T02:13:01.809Z,21.83
2018-06-12T02:14:01.614Z,21.93
2018-06-12T02:15:01.650Z,21.92
2018-06-12T02:16:01.417Z,21.95
2018-06-12T02:17:01.696Z,21.91
2018-06-12T02:18:01.720Z,21.85
2018-06-12T02:19:01.495Z,21.89
2018-06-12T02:20:01.521Z,21.79
2018-06-12T02:21:01.541Z,21.79
2018-06-12T02:22:01.830Z,21.82
2018-06-12T02:23:01.844Z,21.89
2018-06-12T02:24:01.863Z,21.77
2018-06-12T02:25:01.897Z,21.75
2018-06-12T02:26:01.920Z,21.64
2018-06-12T02:27:01.949Z,21.75
2018-06-12T02:28:02.036Z,21.62
2018-06-12T02:29:01.727Z,21.43
2018-06-12T02:30:02.056Z,21.4
2018-06-12T02:31:02.027Z,20.93
2018-06-12T02:32:02.063Z,20.92
2018-06-12T02:33:02.128Z,20.75
2018-06-12T02:34:02.105Z,20.81
2018-06-12T02:35:02.140Z,20.72
2018-06-12T02:36:01.915Z,20.84
2018-06-12T02:37:02.204Z,20.93
2018-06-12T02:38:01.715Z,20.81
2018-06-12T02:39:02.242Z,20.65
2018-06-12T02:40:02.281Z,20.75
2018-06-12T02:41:01.810Z,20.75
2018-06-12T02:42:02.086Z,20.78
2018-06-12T02:43:02.369Z,20.84
2018-06-12T02:44:02.388Z,20.84
2018-06-12T02:45:02.447Z,20.82
2018-06-12T02:46:02.157Z,20.75
2018-06-12T02:47:02.434Z,20.8
2018-06-12T02:48:02.521Z,20.85
2018-06-12T02:49:02.233Z,20.85
2018-06-12T02:50:02.256Z,20.8
2018-06-12T02:51:02.541Z,20.87
2018-06-12T02:52:02.569Z,20.87
2018-06-12T02:53:02.081Z,20.9
2018-06-12T02:54:02.613Z,21.02
2018-06-12T02:55:02.390Z,21.05
2018-06-12T02:56:02.673Z,21
2018-06-12T02:57:02.437Z,21.03
2018-06-12T02:58:02.715Z,20.95
2018-06-12T02:59:02.742Z,21.06
2018-06-12T03:00:02.255Z,21.03
2018-06-12T03:01:02.540Z,20.9
2018-06-12T03:02:02.821Z,20.87
2018-06-12T03:03:02.643Z,20.74
2018-06-12T03:04:02.862Z,20.85
2018-06-12T03:05:02.907Z,21
2018-06-12T03:06:02.926Z,20.93
2018-06-12T03:07:02.968Z,20.77
2018-06-12T03:08:02.961Z,20.63
2018-06-12T03:09:02.732Z,20.67
2018-06-12T03:10:03.080Z,20.65
2018-06-12T03:11:03.039Z,20.59
2018-06-12T03:12:03.057Z,20.47
2018-06-12T03:13:03.093Z,20.6
2018-06-12T03:14:03.108Z,20.58
2018-06-12T03:15:03.138Z,20.66
2018-06-12T03:16:03.162Z,20.7
2018-06-12T03:17:02.927Z,20.78
2018-06-12T03:18:03.003Z,20.7
2018-06-12T03:19:03.231Z,20.66
2018-06-12T03:20:03.005Z,20.75
2018-06-12T03:21:03.286Z,20.84
2018-06-12T03:22:03.306Z,20.85
2018-06-12T03:23:03.384Z,20.96
2018-06-12T03:24:03.363Z,21.06
2018-06-12T03:25:03.125Z,21.02
2018-06-12T03:26:03.399Z,21.12
2018-06-12T03:27:03.439Z,21.03
2018-06-12T03:28:03.426Z,21.02
2018-06-12T03:29:03.455Z,20.93
2018-06-12T03:30:03.484Z,20.93
2018-06-12T03:31:03.527Z,20.93
2018-06-12T03:32:03.275Z,20.97
2018-06-12T03:33:03.620Z,21.03
2018-06-12T03:34:03.573Z,20.96
2018-06-12T03:35:03.364Z,20.97
2018-06-12T03:36:03.621Z,20.88
2018-06-12T03:37:03.440Z,20.88
2018-06-12T03:38:03.451Z,21.02
2018-06-12T03:39:03.717Z,21.06
2018-06-12T03:40:03.747Z,21.02
2018-06-12T03:41:03.528Z,20.99
2018-06-12T03:42:03.544Z,21.03
2018-06-12T03:43:03.834Z,20.93
2018-06-12T03:44:03.843Z,21.05
2018-06-12T03:45:03.872Z,21.09
2018-06-12T03:46:03.741Z,21.27
2018-06-12T03:47:03.914Z,21.27
2018-06-12T03:48:03.981Z,21.24
2018-06-12T03:49:03.456Z,21.22
2018-06-12T03:50:03.740Z,21.14
2018-06-12T03:51:03.761Z,21.14
2018-06-12T03:52:04.036Z,21.2
2018-06-12T03:53:04.064Z,20.95
2018-06-12T03:54:03.832Z,20.88
2018-06-12T03:55:03.610Z,20.97
2018-06-12T03:56:03.881Z,20.95
2018-06-12T03:57:03.909Z,21.11
2018-06-12T03:58:04.203Z,21.2
2018-06-12T03:59:03.958Z,21.27
2018-06-12T04:00:03.984Z,21.36
2018-06-12T04:01:03.752Z,21.33
2018-06-12T04:02:03.790Z,21.42
2018-06-12T04:03:03.852Z,21.58
2018-06-12T04:04:04.083Z,21.6
2018-06-12T04:05:04.103Z,21.67
2018-06-12T04:06:04.394Z,21.52
2018-06-12T04:07:04.410Z,21.42
2018-06-12T04:08:03.941Z,21.37
2018-06-12T04:09:04.465Z,21.06
2018-06-12T04:10:04.488Z,21.05
2018-06-12T04:11:04.513Z,21.12
2018-06-12T04:12:04.550Z,21.22
2018-06-12T04:13:04.308Z,21.14
2018-06-12T04:14:04.595Z,21.15
2018-06-12T04:15:04.510Z,21.21
2018-06-12T04:16:04.383Z,21.32
2018-06-12T04:17:04.669Z,21.25
2018-06-12T04:18:04.750Z,21.35
2018-06-12T04:19:04.455Z,21.29
2018-06-12T04:20:04.491Z,21.33
2018-06-12T04:21:04.501Z,21.29
2018-06-12T04:22:04.791Z,21.2
2018-06-12T04:23:04.545Z,21.24
2018-06-12T04:24:04.316Z,21.27
2018-06-12T04:25:04.597Z,21
2018-06-12T04:26:04.619Z,21.03
2018-06-12T04:27:04.393Z,21.11
2018-06-12T04:28:04.917Z,21.03
2018-06-12T04:29:04.437Z,21
2018-06-12T04:30:04.980Z,21.03
2018-06-12T04:31:05.003Z,20.93
2018-06-12T04:32:05.028Z,20.97
2018-06-12T04:33:06.109Z,20.72
2018-06-12T04:34:04.828Z,20.66
2018-06-12T04:35:04.851Z,20.56
2018-06-12T04:36:04.878Z,20.52
2018-06-12T04:37:04.907Z,20.66
2018-06-12T04:38:05.178Z,20.75
2018-06-12T04:39:05.201Z,20.69
2018-06-12T04:40:04.973Z,20.48
2018-06-12T04:41:05.001Z,20.63
2018-06-12T04:42:05.076Z,20.77
2018-06-12T04:43:05.301Z,20.77
2018-06-12T04:44:05.325Z,20.74
2018-06-12T04:45:05.094Z,20.84
2018-06-12T04:46:05.123Z,20.75
2018-06-12T04:47:05.402Z,20.58
2018-06-12T04:48:05.473Z,20.7
2018-06-12T04:49:05.453Z,20.7
2018-06-12T04:50:05.217Z,20.85
2018-06-12T04:51:05.500Z,20.78
2018-06-12T04:52:05.522Z,20.82
2018-06-12T04:53:05.548Z,20.95
2018-06-12T04:54:05.321Z,20.97
2018-06-12T04:55:05.596Z,21.07
2018-06-12T04:56:05.620Z,21.2
2018-06-12T04:57:05.650Z,21.25
2018-06-12T04:58:06.670Z,21.35
2018-06-12T04:59:05.708Z,21.3
2018-06-12T05:00:05.725Z,21.4
2018-06-12T05:01:05.492Z,21.4
2018-06-12T05:02:05.774Z,21.46
2018-06-12T05:03:05.595Z,21.42
2018-06-12T05:04:05.574Z,21.5
2018-06-12T05:05:05.849Z,21.55
2018-06-12T05:06:05.620Z,21.57
2018-06-12T05:07:05.646Z,21.39
2018-06-12T05:08:05.930Z,21.11
2018-06-12T05:09:05.438Z,21.11
2018-06-12T05:10:05.969Z,21.32
2018-06-12T05:11:05.744Z,21.45
2018-06-12T05:12:06.047Z,21.35
2018-06-12T05:13:05.893Z,21.36
2018-06-12T05:14:05.815Z,21.58
2018-06-12T05:15:06.108Z,21.62
2018-06-12T05:16:05.863Z,21.66
2018-06-12T05:17:06.159Z,21.43
2018-06-12T05:18:06.222Z,21.54
2018-06-12T05:19:05.690Z,21.39
2018-06-12T05:20:06.483Z,21.46
2018-06-12T05:21:05.991Z,21.5
2018-06-12T05:22:06.021Z,21.7
2018-06-12T05:23:06.286Z,21.75
2018-06-12T05:24:06.063Z,21.7
2018-06-12T05:25:06.088Z,21.67
2018-06-12T05:26:05.861Z,21.51
2018-06-12T05:27:06.396Z,21.62
2018-06-12T05:28:06.408Z,21.82
2018-06-12T05:29:05.936Z,21.83
2018-06-12T05:30:06.214Z,21.93
2018-06-12T05:31:06.332Z,21.93
2018-06-12T05:32:06.258Z,21.89
2018-06-12T05:33:06.596Z,21.98
2018-06-12T05:34:06.311Z,22.15
2018-06-12T05:35:06.333Z,22.22
2018-06-12T05:36:06.375Z,22.26
2018-06-12T05:37:06.137Z,22.41
2018-06-12T05:38:06.661Z,22.51
2018-06-12T05:39:06.437Z,22.51
2018-06-12T05:40:06.716Z,22.48
2018-06-12T05:41:06.504Z,22.57
2018-06-12T05:42:06.534Z,22.55
2018-06-12T05:43:06.549Z,22.5
2018-06-12T05:44:06.830Z,22.47
2018-06-12T05:45:06.865Z,22.51
2018-06-12T05:46:06.634Z,22.45
2018-06-12T05:47:06.659Z,22.54
2018-06-12T05:48:06.478Z,22.51
2018-06-12T05:49:06.962Z,22.43
2018-06-12T05:50:06.985Z,22.36
2018-06-12T05:51:06.757Z,22.45
2018-06-12T05:52:06.786Z,22.22
2018-06-12T05:53:07.062Z,22.08
2018-06-12T05:54:06.832Z,22.13
2018-06-12T05:55:06.859Z,22.18
2018-06-12T05:56:06.633Z,22.29
2018-06-12T05:57:06.655Z,22.38
2018-06-12T05:58:06.934Z,22.48
2018-06-12T05:59:07.188Z,22.47
2018-06-12T06:00:07.231Z,22.6
2018-06-12T06:01:07.008Z,22.73
2018-06-12T06:02:07.034Z,22.78
2018-06-12T06:03:07.110Z,22.84
2018-06-12T06:04:06.835Z,22.99
2018-06-12T06:05:07.122Z,22.98
2018-06-12T06:06:07.138Z,22.91
2018-06-12T06:07:07.162Z,22.98
2018-06-12T06:08:07.439Z,22.84
2018-06-12T06:09:07.475Z,22.78
2018-06-12T06:10:07.509Z,22.87
2018-06-12T06:11:07.264Z,22.84
2018-06-12T06:12:07.550Z,22.81
2018-06-12T06:13:07.321Z,22.73
2018-06-12T06:14:07.607Z,22.65
2018-06-12T06:15:07.372Z,22.62
2018-06-12T06:16:07.394Z,22.68
2018-06-12T06:17:07.762Z,22.73
2018-06-12T06:18:07.188Z,22.8
2018-06-12T06:19:07.456Z,22.7
2018-06-12T06:20:07.745Z,22.59
2018-06-12T06:21:07.530Z,22.47
2018-06-12T06:22:07.529Z,22.33
2018-06-12T06:23:07.558Z,22.33
2018-06-12T06:24:07.587Z,22.48
2018-06-12T06:25:07.361Z,22.5
2018-06-12T06:26:07.635Z,22.47
2018-06-12T06:27:07.912Z,22.25
2018-06-12T06:28:07.962Z,22.3
2018-06-12T06:29:07.986Z,22.41
2018-06-12T06:30:08.008Z,22.44
2018-06-12T06:31:07.791Z,22.48
2018-06-12T06:32:08.087Z,22.63
2018-06-12T06:33:08.088Z,22.7
2018-06-12T06:34:08.116Z,22.75
2018-06-12T06:35:07.632Z,22.25
2018-06-12T06:36:07.672Z,22.44
2018-06-12T06:37:08.181Z,22.48
2018-06-12T06:38:08.217Z,22.18
2018-06-12T06:39:07.994Z,22.08
2018-06-12T06:40:08.264Z,22
2018-06-12T06:41:07.788Z,22.04
2018-06-12T06:42:08.323Z,22.23
2018-06-12T06:43:08.577Z,22.2
2018-06-12T06:44:08.119Z,22.39
2018-06-12T06:45:08.402Z,22.48
2018-06-12T06:46:08.172Z,22.69
2018-06-12T06:47:07.941Z,22.63
2018-06-12T06:48:08.220Z,22.81
2018-06-12T06:49:08.511Z,22.85
2018-06-12T06:50:08.020Z,22.98
2018-06-12T06:51:08.759Z,22.98
2018-06-12T06:52:08.582Z,22.99
2018-06-12T06:53:08.357Z,23.05
2018-06-12T06:54:08.630Z,23.23
2018-06-12T06:55:08.655Z,23.27
2018-06-12T06:56:08.694Z,23.34
2018-06-12T06:57:08.454Z,23.31
2018-06-12T06:58:08.730Z,23.39
2018-06-12T06:59:08.760Z,23.37
2018-06-12T07:00:08.782Z,23.46
2018-06-12T07:01:08.811Z,23.51
2018-06-12T07:02:08.584Z,23.54
2018-06-12T07:03:08.866Z,23.48
2018-06-12T07:04:08.892Z,23.36
2018-06-12T07:05:08.931Z,23.54
2018-06-12T07:06:08.943Z,23.78
2018-06-12T07:07:08.967Z,24.03
2018-06-12T07:08:08.988Z,23.93
2018-06-12T07:09:08.878Z,24.01
2018-06-12T07:10:08.794Z,24.01
2018-06-12T07:11:08.813Z,24.2
2018-06-12T07:12:09.091Z,24.11
2018-06-12T07:13:09.115Z,24.13
2018-06-12T07:14:09.156Z,24.21
2018-06-12T07:15:08.927Z,24.13
2018-06-12T07:16:09.202Z,24.11
2018-06-12T07:17:08.987Z,24.13
2018-06-12T07:18:09.252Z,24.23
2018-06-12T07:19:09.032Z,24.26
2018-06-12T07:20:09.319Z,24.43
2018-06-12T07:21:09.344Z,24.6
2018-06-12T07:22:08.853Z,24.86
2018-06-12T07:23:09.384Z,25.01
2018-06-12T07:24:09.408Z,25.14
2018-06-12T07:25:09.191Z,25.1
2018-06-12T07:26:09.218Z,25.11
2018-06-12T07:27:09.243Z,25.23
2018-06-12T07:28:09.525Z,25.18
2018-06-12T07:29:09.552Z,25.41
2018-06-12T07:30:09.782Z,25.53
2018-06-12T07:31:09.350Z,25.51
2018-06-12T07:32:09.625Z,25.4
2018-06-12T07:33:09.657Z,25.36
2018-06-12T07:34:09.694Z,25.32
2018-06-12T07:35:09.722Z,25.23
2018-06-12T07:36:09.744Z,25.21
2018-06-12T07:37:09.777Z,25.18
2018-06-12T07:38:09.812Z,25.35
2018-06-12T07:39:09.573Z,25.41
2018-06-12T07:40:09.604Z,25.38
2018-06-12T07:41:09.629Z,25.51
2018-06-12T07:42:09.405Z,25.69
2018-06-12T07:43:09.925Z,25.98
2018-06-12T07:44:09.455Z,26.03
2018-06-12T07:45:09.477Z,26.09
2018-06-12T07:46:10.009Z,26.23
2018-06-12T07:47:10.054Z,26.26
2018-06-12T07:48:09.823Z,26.23
2018-06-12T07:49:09.859Z,26.16
2018-06-12T07:50:10.136Z,26.28
2018-06-12T07:51:10.168Z,26.44
2018-06-12T07:52:09.935Z,26.52
2018-06-12T07:53:10.217Z,26.6
2018-06-12T07:54:10.242Z,26.41
2018-06-12T07:55:09.765Z,26.6
2018-06-12T07:56:10.049Z,26.65
2018-06-12T07:57:10.333Z,26.8
2018-06-12T07:58:09.853Z,27
2018-06-12T07:59:10.396Z,27.07
2018-06-12T08:00:10.415Z,26.89
2018-06-12T08:01:10.184Z,26.71
2018-06-12T08:02:10.475Z,26.83
2018-06-12T08:03:10.241Z,26.51
2018-06-12T08:04:10.525Z,26.58
2018-06-12T08:05:10.556Z,26.66
2018-06-12T08:06:10.328Z,26.62
2018-06-12T08:07:10.754Z,26.83
2018-06-12T08:08:10.132Z,26.93
2018-06-12T08:09:10.676Z,27.08
2018-06-12T08:10:10.189Z,27.25
2018-06-12T08:11:10.721Z,27.27
2018-06-12T08:12:10.754Z,27.4
2018-06-12T08:13:10.720Z,27.42
2018-06-12T08:14:10.808Z,27.39
2018-06-12T08:15:10.588Z,27.39
2018-06-12T08:16:10.872Z,27.58
2018-06-12T08:17:10.391Z,27.52
2018-06-12T08:18:10.929Z,27.74
2018-06-12T08:19:10.701Z,27.8
2018-06-12T08:20:10.992Z,27.92
2018-06-12T08:21:10.758Z,27.82
2018-06-12T08:22:10.782Z,27.71
2018-06-12T08:23:11.067Z,27.78
2018-06-12T08:24:11.096Z,27.85
2018-06-12T08:25:10.874Z,27.7
2018-06-12T08:26:10.910Z,27.45
2018-06-12T08:27:11.184Z,27.26
2018-06-12T08:28:10.969Z,27.22
2018-06-12T08:29:11.235Z,27.08
2018-06-12T08:30:11.194Z,26.78
2018-06-12T08:31:11.293Z,26.65
2018-06-12T08:32:11.071Z,26.62
2018-06-12T08:33:11.350Z,26.65
2018-06-12T08:34:11.428Z,26.84
2018-06-12T08:35:11.157Z,27.05
2018-06-12T08:36:11.194Z,27.1
2018-06-12T08:37:11.215Z,27.14
2018-06-12T08:38:10.986Z,27.26
2018-06-12T08:39:12.069Z,27.47
2018-06-12T08:40:11.556Z,27.78
2018-06-12T08:41:11.583Z,28.14
2018-06-12T08:42:11.364Z,28.32
2018-06-12T08:43:11.380Z,28.44
2018-06-12T08:44:11.664Z,28.54
2018-06-12T08:45:11.455Z,28.42
2018-06-12T08:46:11.723Z,28.51
2018-06-12T08:47:11.245Z,28.52
2018-06-12T08:48:11.528Z,28.42
2018-06-12T08:49:11.561Z,28.39
2018-06-12T08:50:11.857Z,28.48
2018-06-12T08:51:11.872Z,28.41
2018-06-12T08:52:11.906Z,28.48
2018-06-12T08:53:11.927Z,28.54
2018-06-12T08:54:12.008Z,28.62
2018-06-12T08:55:11.729Z,28.45
2018-06-12T08:56:12.015Z,28.48
2018-06-12T08:57:12.040Z,28.47
2018-06-12T08:58:11.815Z,28.57
2018-06-12T08:59:12.122Z,28.64
2018-06-12T09:00:12.136Z,28.74
2018-06-12T09:01:12.154Z,28.69
2018-06-12T09:02:11.933Z,28.81
2018-06-12T09:03:12.218Z,28.78
2018-06-12T09:04:12.043Z,28.78
2018-06-12T09:05:12.028Z,28.7
2018-06-12T09:06:12.049Z,28.81
2018-06-12T09:07:12.333Z,28.84
2018-06-12T09:08:12.369Z,29.02
2018-06-12T09:09:12.397Z,29.02
2018-06-12T09:10:12.168Z,28.94
2018-06-12T09:11:12.446Z,28.85
2018-06-12T09:12:12.223Z,29.01
2018-06-12T09:13:12.259Z,28.96
2018-06-12T09:14:12.541Z,28.41
2018-06-12T09:15:12.568Z,28.42
2018-06-12T09:16:12.341Z,28.64
2018-06-12T09:17:12.628Z,28.82
2018-06-12T09:18:12.146Z,28.93
2018-06-12T09:19:12.176Z,29.02
2018-06-12T09:20:12.461Z,29.2
2018-06-12T09:21:12.738Z,29.27
2018-06-12T09:22:12.819Z,29.59
2018-06-12T09:23:12.798Z,29.72
2018-06-12T09:24:12.830Z,29.86
2018-06-12T09:25:13.095Z,29.82
2018-06-12T09:26:12.885Z,29.98
2018-06-12T09:27:12.657Z,30.09
2018-06-12T09:28:12.694Z,29.91
2018-06-12T09:29:12.980Z,29.72
2018-06-12T09:30:12.753Z,29.76
2018-06-12T09:31:12.782Z,29.9
2018-06-12T09:32:13.065Z,29.86
2018-06-12T09:33:13.128Z,29.81
2018-06-12T09:34:12.871Z,29.86
2018-06-12T09:35:12.900Z,29.94
2018-06-12T09:36:13.186Z,29.97
2018-06-12T09:37:13.271Z,30.05
2018-06-12T09:38:13.246Z,30.03
2018-06-12T09:39:13.019Z,29.84
2018-06-12T09:40:13.303Z,29.87
2018-06-12T09:41:12.826Z,29.72
2018-06-12T09:42:13.677Z,29.79
2018-06-12T09:43:13.134Z,29.65
2018-06-12T09:44:13.178Z,29.75
2018-06-12T09:45:13.456Z,29.66
2018-06-12T09:46:13.479Z,29.66
2018-06-12T09:47:13.270Z,29.76
2018-06-12T09:48:13.541Z,29.76
2018-06-12T09:49:13.389Z,29.76
2018-06-12T09:50:13.596Z,29.69
2018-06-12T09:51:13.369Z,29.95
2018-06-12T09:52:14.771Z,30.09
2018-06-12T09:53:13.444Z,30.15
2018-06-12T09:54:13.721Z,30.21
2018-06-12T09:55:13.495Z,30.27
2018-06-12T09:56:13.571Z,30.34
2018-06-12T09:57:13.818Z,30.34
2018-06-12T09:58:13.589Z,30.25
2018-06-12T09:59:13.616Z,30.25
2018-06-12T10:00:13.902Z,30.24
2018-06-12T10:01:13.422Z,30.43
2018-06-12T10:02:14.065Z,30.3
2018-06-12T10:03:13.736Z,30.12
2018-06-12T10:04:14.021Z,29.91
2018-06-12T10:05:13.799Z,29.61
2018-06-12T10:06:14.079Z,29.59
2018-06-12T10:07:14.151Z,29.87
2018-06-12T10:08:13.876Z,30.16
2018-06-12T10:09:14.166Z,30.39
2018-06-12T10:10:13.947Z,30.83
2018-06-12T10:11:14.235Z,31.14
2018-06-12T10:12:14.259Z,31.61
2018-06-12T10:13:14.290Z,32
2018-06-12T10:14:14.324Z,32.07
2018-06-12T10:15:14.351Z,32.18
2018-06-12T10:16:14.389Z,32.16
2018-06-12T10:17:14.166Z,32.33
2018-06-12T10:18:14.445Z,32.22
2018-06-12T10:19:14.482Z,31.96
2018-06-12T10:20:14.520Z,31.87
2018-06-12T10:21:14.543Z,31.74
2018-06-12T10:22:14.373Z,31.89
2018-06-12T10:23:14.604Z,32.18
2018-06-12T10:24:14.380Z,32.43
2018-06-12T10:25:14.675Z,32.8
2018-06-12T10:26:14.708Z,32.87
2018-06-12T10:27:14.729Z,33.19
2018-06-12T10:28:14.770Z,33.28
2018-06-12T10:29:14.790Z,33.37
2018-06-12T10:30:14.569Z,33.08
2018-06-12T10:31:14.600Z,33.2
2018-06-12T10:32:14.887Z,33.12
2018-06-12T10:33:14.915Z,32.78
2018-06-12T10:34:14.694Z,32.67
2018-06-12T10:35:14.470Z,32.78
2018-06-12T10:36:14.764Z,32.77
2018-06-12T10:37:15.060Z,32.46
2018-06-12T10:38:15.078Z,32.11
2018-06-12T10:39:14.853Z,31.77
2018-06-12T10:40:14.889Z,31.7
2018-06-12T10:41:14.919Z,31.76
2018-06-12T10:42:15.206Z,31.74
2018-06-12T10:43:15.231Z,31.64
2018-06-12T10:44:14.760Z,31.49
2018-06-12T10:45:15.295Z,31.61
2018-06-12T10:46:15.329Z,31.74
2018-06-12T10:47:15.127Z,31.99
2018-06-12T10:48:15.139Z,32.15
2018-06-12T10:49:15.422Z,32.23
2018-06-12T10:50:15.449Z,32.27
2018-06-12T10:51:15.487Z,32.26
2018-06-12T10:52:15.313Z,32.49
2018-06-12T10:53:15.545Z,32.31
2018-06-12T10:54:15.573Z,32.04
2018-06-12T10:55:15.609Z,31.99
2018-06-12T10:56:15.638Z,32.15
2018-06-12T10:57:15.669Z,32.31
2018-06-12T10:58:15.706Z,32.4
2018-06-12T10:59:15.486Z,32.16
2018-06-12T11:00:15.762Z,32.73
2018-06-12T11:01:15.542Z,33.24
2018-06-12T11:02:15.828Z,33.69
2018-06-12T11:03:15.909Z,33.8
2018-06-12T11:04:15.632Z,33.8
2018-06-12T11:05:15.926Z,33.64
2018-06-12T11:06:15.950Z,33.52
2018-06-12T11:07:15.777Z,33.02
2018-06-12T11:08:16.021Z,32.78
2018-06-12T11:09:16.070Z,32.68
2018-06-12T11:10:15.824Z,32.82
2018-06-12T11:11:16.168Z,32.68
2018-06-12T11:12:16.143Z,32.48
2018-06-12T11:13:16.179Z,32.45
2018-06-12T11:14:15.947Z,32.48
2018-06-12T11:15:16.245Z,32.48
2018-06-12T11:16:16.264Z,32.74
2018-06-12T11:17:16.296Z,32.86
2018-06-12T11:18:16.324Z,33.15
2018-06-12T11:19:16.102Z,33.46
2018-06-12T11:20:16.143Z,34.16
2018-06-12T11:21:15.936Z,34.93
2018-06-12T11:22:16.503Z,35.05
2018-06-12T11:23:16.500Z,35.27
2018-06-12T11:24:16.264Z,35.46
2018-06-12T11:25:16.553Z,35.79
2018-06-12T11:26:16.594Z,35.85
2018-06-12T11:27:16.414Z,36.01
2018-06-12T11:28:16.395Z,35.67
2018-06-12T11:29:16.689Z,35.36
2018-06-12T11:30:16.719Z,35.07
2018-06-12T11:31:16.750Z,34.58
2018-06-12T11:32:16.527Z,34.3
2018-06-12T11:33:16.556Z,34.05
2018-06-12T11:34:16.838Z,33.89
2018-06-12T11:35:16.868Z,33.73
2018-06-12T11:36:16.646Z,33.74
2018-06-12T11:37:16.932Z,33.49
2018-06-12T11:38:16.714Z,33.2
2018-06-12T11:39:16.997Z,33.04
2018-06-12T11:40:16.788Z,33.09
2018-06-12T11:41:17.074Z,32.82
2018-06-12T11:42:17.115Z,32.78
2018-06-12T11:43:17.180Z,32.4
2018-06-12T11:44:17.216Z,32.43
2018-06-12T11:45:16.950Z,32.77
2018-06-12T11:46:17.230Z,33.19
2018-06-12T11:47:17.261Z,33.45
2018-06-12T11:48:17.040Z,33.79
2018-06-12T11:49:16.824Z,34.08
2018-06-12T11:50:17.374Z,34.43
2018-06-12T11:51:17.395Z,34.66
2018-06-12T11:52:16.910Z,35.33
2018-06-12T11:53:17.444Z,35.82
2018-06-12T11:54:17.481Z,36.39
2018-06-12T11:55:17.509Z,36.95
2018-06-12T11:56:17.548Z,37.53
2018-06-12T11:57:17.330Z,37.84
2018-06-12T11:58:17.356Z,37.48
2018-06-12T11:59:17.140Z,37.77
2018-06-12T12:00:17.427Z,37.93
2018-06-12T12:01:17.535Z,38.06
2018-06-12T12:02:17.760Z,37.8
2018-06-12T12:03:17.787Z,37.83
2018-06-12T12:04:17.822Z,37.59
2018-06-12T12:05:17.601Z,37.6
2018-06-12T12:06:17.381Z,37.82
2018-06-12T12:07:17.924Z,37.94
2018-06-12T12:08:17.702Z,38.26
2018-06-12T12:09:17.992Z,38.39
2018-06-12T12:10:18.020Z,38.34
2018-06-12T12:11:18.063Z,38.43
2018-06-12T12:12:18.103Z,38.19
2018-06-12T12:13:18.129Z,37.59
2018-06-12T12:14:17.911Z,37.51
2018-06-12T12:15:17.946Z,36.92
2018-06-12T12:16:17.983Z,36.59
2018-06-12T12:17:18.014Z,36.27
2018-06-12T12:18:18.040Z,36.08
2018-06-12T12:19:18.322Z,36.01
2018-06-12T12:20:18.372Z,35.61
2018-06-12T12:21:18.410Z,35.58
2018-06-12T12:22:18.436Z,35.68
2018-06-12T12:23:18.507Z,35.85
2018-06-12T12:24:18.504Z,36.18
2018-06-12T12:25:18.535Z,36.31
2018-06-12T12:26:18.570Z,36.36
2018-06-12T12:27:18.608Z,36.47
2018-06-12T12:28:18.636Z,36.58
2018-06-12T12:29:18.417Z,36.58
2018-06-12T12:30:18.705Z,36.57
2018-06-12T12:31:18.734Z,36.51
2018-06-12T12:32:18.516Z,36.02
2018-06-12T12:33:18.800Z,36.37
2018-06-12T12:34:18.833Z,36.65
2018-06-12T12:35:18.871Z,36.7
2018-06-12T12:36:18.898Z,36.93
2018-06-12T12:37:18.939Z,37.3
2018-06-12T12:38:18.713Z,37.39
2018-06-12T12:39:19.003Z,37.59
2018-06-12T12:40:19.035Z,37.96
2018-06-12T12:41:19.068Z,37.86
2018-06-12T12:42:19.102Z,37.65
2018-06-12T12:43:18.890Z,37.4
2018-06-12T12:44:19.174Z,37.2
2018-06-12T12:45:19.203Z,36.99
2018-06-12T12:46:18.985Z,36.8
2018-06-12T12:47:19.275Z,36.23
2018-06-12T12:48:19.369Z,35.95
2018-06-12T12:49:19.347Z,36.16
2018-06-12T12:50:19.119Z,35.92
2018-06-12T12:51:19.407Z,35.74
2018-06-12T12:52:19.440Z,35.64
2018-06-12T12:53:19.476Z,35.7
2018-06-12T12:54:19.252Z,36.18
2018-06-12T12:55:19.538Z,36.39
2018-06-12T12:56:19.572Z,36.43